Time;durP1;ratioP1;P1;durP2;ratioP2;P2;SDS_P1;SDS_P2;PMS_P1;PMS_P2;Temp;Humidity;BMP_temperature;BMP_pressure;BME280_temperature;BME280_humidity;BME280_pressure;Samples;Min_cycle;Max_cycle;Signal;HPM_P1;HPM_P2
2021/12/11 00:00:49;;;;;;;43.27;14.50;;;0.10;99.90;;;;;;5023236;28;20647;-71
2021/12/11 00:03:22;;;;;;;51.97;15.80;;;0.10;99.90;;;;;;5024296;28;20283;-70
2021/12/11 00:05:55;;;;;;;43.20;15.47;;;-0.70;99.90;;;;;;5028857;28;20304;-70
2021/12/11 00:08:25;;;;;;;40.10;14.63;;;0.10;99.90;;;;;;5027054;28;20208;-70
2021/12/11 00:10:57;;;;;;;46.40;15.43;;;0.20;99.90;;;;;;5022837;28;20236;-70
2021/12/11 00:13:26;;;;;;;48.60;15.00;;;0.20;99.90;;;;;;5021438;28;20210;-69
2021/12/11 00:15:54;;;;;;;53.43;18.77;;;0.20;99.90;;;;;;5039575;28;20319;-69
2021/12/11 00:18:23;;;;;;;40.90;14.83;;;0.20;99.90;;;;;;5024253;28;20205;-70
2021/12/11 00:20:54;;;;;;;39.17;14.53;;;0.20;99.90;;;;;;5020836;28;20233;-69
2021/12/11 00:23:27;;;;;;;41.20;14.97;;;0.10;99.90;;;;;;5020482;28;20236;-70
2021/12/11 00:25:56;;;;;;;44.73;15.60;;;0.10;99.90;;;;;;5022966;28;20212;-70
2021/12/11 00:28:23;;;;;;;43.70;16.43;;;0.10;99.90;;;;;;5021917;28;20662;-70
2021/12/11 00:30:50;;;;;;;41.97;15.07;;;0.00;99.90;;;;;;5021317;28;20214;-70
2021/12/11 00:33:21;;;;;;;49.57;16.70;;;0.00;99.90;;;;;;5028247;28;20237;-69
2021/12/11 00:35:53;;;;;;;42.50;15.77;;;0.00;99.90;;;;;;5021682;28;20303;-70
2021/12/11 00:38:25;;;;;;;40.27;14.90;;;0.10;99.90;;;;;;5026912;28;20212;-70
2021/12/11 00:40:56;;;;;;;48.77;16.97;;;0.00;99.90;;;;;;5023279;28;20288;-70
2021/12/11 00:43:29;;;;;;;44.33;15.60;;;0.00;99.90;;;;;;5023096;28;20206;-70
2021/12/11 00:45:58;;;;;;;45.00;15.23;;;-0.10;99.90;;;;;;5023244;28;20214;-70
2021/12/11 00:48:28;;;;;;;46.50;15.93;;;-0.10;99.90;;;;;;5016933;28;20210;-70
2021/12/11 00:50:57;;;;;;;44.93;16.60;;;-0.10;99.90;;;;;;5020868;28;20317;-70
2021/12/11 00:53:29;;;;;;;48.57;17.93;;;-0.10;99.90;;;;;;5024157;28;20667;-70
2021/12/11 00:56:00;;;;;;;45.30;16.40;;;-0.10;99.90;;;;;;5025667;28;20691;-70
2021/12/11 00:58:29;;;;;;;48.80;16.37;;;-0.10;99.90;;;;;;5020379;28;20210;-70
2021/12/11 01:00:59;;;;;;;47.57;16.70;;;-0.10;99.90;;;;;;5019505;28;20213;-71
2021/12/11 01:03:31;;;;;;;48.67;16.57;;;-0.10;99.90;;;;;;5030279;28;20686;-69
2021/12/11 01:06:01;;;;;;;47.90;17.03;;;-0.20;99.90;;;;;;5022005;28;20296;-69
2021/12/11 01:08:32;;;;;;;47.43;17.20;;;-0.10;99.90;;;;;;5027597;28;20958;-69
2021/12/11 01:11:09;;;;;;;53.67;18.23;;;-0.20;99.90;;;;;;5001649;28;20214;-69
2021/12/11 01:13:43;;;;;;;41.77;16.60;;;-0.20;99.90;;;;;;5019820;28;20209;-69
2021/12/11 01:16:13;;;;;;;40.50;15.93;;;-0.30;99.90;;;;;;5032494;28;20224;-69
2021/12/11 01:18:44;;;;;;;42.50;16.23;;;-0.30;99.90;;;;;;5019554;28;20654;-69
2021/12/11 01:21:31;;;;;;;45.97;16.13;;;-0.30;99.90;;;;;;5002484;28;20218;-69
2021/12/11 01:24:14;;;;;;;46.30;15.83;;;-0.30;99.90;;;;;;5021510;28;20476;-69
2021/12/11 01:26:49;;;;;;;46.93;17.13;;;-0.30;99.90;;;;;;5022419;28;20395;-69
2021/12/11 01:29:20;;;;;;;44.50;15.17;;;-0.30;99.90;;;;;;5025876;28;20209;-70
2021/12/11 01:31:48;;;;;;;46.50;16.60;;;-0.30;99.90;;;;;;5024954;28;20229;-69
2021/12/11 01:34:16;;;;;;;40.13;15.20;;;-0.30;99.90;;;;;;5024626;28;20214;-70
2021/12/11 01:36:42;;;;;;;42.00;15.77;;;-0.40;99.90;;;;;;5032441;28;20221;-69
2021/12/11 01:39:13;;;;;;;42.77;15.13;;;-0.40;99.90;;;;;;5027314;28;20205;-69
2021/12/11 01:41:41;;;;;;;42.27;15.37;;;-0.40;99.90;;;;;;5028985;28;20229;-69
2021/12/11 01:44:14;;;;;;;43.77;15.80;;;-0.50;99.90;;;;;;5025508;28;20229;-69
2021/12/11 01:46:42;;;;;;;47.50;16.80;;;-0.50;99.90;;;;;;5027393;28;20205;-69
2021/12/11 01:49:12;;;;;;;45.93;16.13;;;-0.50;99.90;;;;;;5025230;28;20206;-69
2021/12/11 01:51:43;;;;;;;40.53;15.63;;;-0.40;99.90;;;;;;5023073;28;20237;-69
2021/12/11 01:54:16;;;;;;;43.67;16.47;;;-0.40;99.90;;;;;;5032005;28;20556;-69
2021/12/11 01:56:47;;;;;;;46.57;17.10;;;-0.40;99.90;;;;;;5033510;28;20309;-70
2021/12/11 01:59:20;;;;;;;41.47;15.80;;;-0.40;99.90;;;;;;5024244;28;20308;-70
2021/12/11 02:01:52;;;;;;;45.37;17.00;;;-0.30;99.90;;;;;;5023284;28;20231;-69
2021/12/11 02:04:23;;;;;;;45.70;15.97;;;-0.40;99.90;;;;;;5024445;28;20217;-70
2021/12/11 02:06:52;;;;;;;45.07;16.53;;;-0.40;99.90;;;;;;5028096;28;20210;-70
2021/12/11 02:09:24;;;;;;;45.40;15.33;;;-0.50;99.90;;;;;;5030637;28;20214;-70
2021/12/11 02:12:00;;;;;;;47.70;15.83;;;-0.60;99.90;;;;;;5011670;28;20233;-70
2021/12/11 02:14:35;;;;;;;43.80;16.27;;;-0.60;99.90;;;;;;5024384;28;20214;-70
2021/12/11 02:17:03;;;;;;;43.50;16.93;;;-0.60;99.90;;;;;;5026227;28;20591;-70
2021/12/11 02:19:36;;;;;;;44.97;15.97;;;-0.50;99.90;;;;;;5030924;28;20220;-69
2021/12/11 02:22:13;;;;;;;42.43;16.73;;;-0.50;99.90;;;;;;5023954;28;20726;-70
2021/12/11 02:24:43;;;;;;;42.97;16.27;;;-0.50;99.90;;;;;;5032223;28;20210;-69
2021/12/11 02:27:14;;;;;;;46.07;16.57;;;-0.50;99.90;;;;;;5025628;28;20208;-69
2021/12/11 02:29:44;;;;;;;45.30;16.40;;;-0.50;99.90;;;;;;5017532;28;20214;-70
2021/12/11 02:32:16;;;;;;;44.90;17.23;;;-0.50;99.90;;;;;;5022336;28;20233;-69
2021/12/11 02:34:48;;;;;;;51.07;18.60;;;-0.50;99.90;;;;;;5021783;28;20270;-69
2021/12/11 02:37:21;;;;;;;45.87;17.43;;;-0.40;99.90;;;;;;5007613;28;20606;-69
2021/12/11 02:39:55;;;;;;;50.60;18.37;;;-0.40;99.90;;;;;;5025266;28;20210;-69
2021/12/11 02:42:27;;;;;;;45.17;16.93;;;-0.50;99.90;;;;;;5015333;28;20245;-69
2021/12/11 02:44:57;;;;;;;43.87;16.23;;;-0.50;99.90;;;;;;5022082;28;20214;-69
2021/12/11 02:47:27;;;;;;;48.67;17.03;;;-0.60;99.90;;;;;;5024251;28;20205;-69
2021/12/11 02:49:57;;;;;;;52.77;18.03;;;-0.60;99.90;;;;;;5022985;28;20663;-69
2021/12/11 02:52:31;;;;;;;44.97;17.93;;;-0.60;99.90;;;;;;5022380;28;20256;-69
2021/12/11 02:55:01;;;;;;;44.17;15.63;;;-0.50;99.90;;;;;;5030800;28;20229;-69
2021/12/11 02:57:32;;;;;;;42.83;18.30;;;-0.50;99.90;;;;;;5027949;28;20221;-69
2021/12/11 03:00:08;;;;;;;51.57;19.27;;;-0.50;99.90;;;;;;5026617;28;20218;-69
2021/12/11 03:02:36;;;;;;;48.37;18.97;;;-0.40;99.90;;;;;;5022724;28;20225;-69
2021/12/11 03:05:10;;;;;;;53.50;19.30;;;-0.40;99.90;;;;;;5021375;28;20211;-70
2021/12/11 03:07:44;;;;;;;54.37;18.07;;;-0.40;99.90;;;;;;5006461;28;20537;-70
2021/12/11 03:10:14;;;;;;;46.07;15.87;;;-0.30;99.90;;;;;;5028879;28;20209;-70
2021/12/11 03:12:43;;;;;;;37.90;15.53;;;-0.30;99.90;;;;;;5031134;28;20237;-70
2021/12/11 03:15:10;;;;;;;44.70;16.63;;;-0.40;99.90;;;;;;5029297;28;20221;-70
2021/12/11 03:17:38;;;;;;;41.63;17.00;;;-0.40;99.90;;;;;;5030226;28;20685;-70
2021/12/11 03:20:06;;;;;;;43.90;17.17;;;-0.50;99.90;;;;;;5024447;28;20217;-70
2021/12/11 03:22:34;;;;;;;47.53;18.37;;;-0.40;99.90;;;;;;5020430;28;20246;-70
2021/12/11 03:25:07;;;;;;;44.70;17.20;;;-0.40;99.90;;;;;;5019781;28;20824;-69
2021/12/11 03:27:33;;;;;;;45.73;18.17;;;-0.40;99.90;;;;;;5031482;28;20214;-69
2021/12/11 03:30:01;;;;;;;50.00;17.10;;;-0.30;99.90;;;;;;5021747;28;20221;-69
2021/12/11 03:32:28;;;;;;;42.63;16.80;;;-0.30;99.90;;;;;;5019559;28;20473;-69
2021/12/11 03:34:55;;;;;;;51.37;17.23;;;-0.30;99.90;;;;;;5024720;28;20229;-69
2021/12/11 03:37:22;;;;;;;48.37;16.20;;;-0.20;99.90;;;;;;5023539;28;20224;-70
2021/12/11 03:39:54;;;;;;;47.90;17.23;;;-0.30;99.90;;;;;;5021685;28;20225;-70
2021/12/11 03:42:28;;;;;;;43.37;16.37;;;-0.30;99.90;;;;;;5017221;28;20242;-69
2021/12/11 03:44:55;;;;;;;59.10;18.90;;;-0.20;99.90;;;;;;5030466;28;20198;-69
2021/12/11 03:47:25;;;;;;;52.37;18.53;;;-0.20;99.90;;;;;;5024517;28;20231;-68
2021/12/11 03:49:52;;;;;;;55.37;18.03;;;-0.20;99.90;;;;;;5024020;28;20557;-69
2021/12/11 03:52:20;;;;;;;44.70;17.53;;;-0.20;99.90;;;;;;5020718;28;20241;-69
2021/12/11 03:54:51;;;;;;;57.33;17.20;;;-0.20;99.90;;;;;;5021176;28;20659;-69
2021/12/11 03:57:21;;;;;;;74.23;18.00;;;-0.10;99.90;;;;;;5036857;28;20232;-69
2021/12/11 03:59:49;;;;;;;88.40;20.80;;;0.00;99.90;;;;;;5025650;28;20599;-69
2021/12/11 04:02:20;;;;;;;94.23;20.83;;;0.10;99.90;;;;;;5022909;28;20237;-69
2021/12/11 04:04:50;;;;;;;94.27;20.40;;;0.20;99.90;;;;;;5022305;28;20727;-69
2021/12/11 04:07:20;;;;;;;83.13;19.47;;;0.30;99.90;;;;;;5023170;28;20206;-70
2021/12/11 04:09:47;;;;;;;136.20;22.40;;;0.30;99.90;;;;;;5025195;28;20201;-70
2021/12/11 04:12:16;;;;;;;75.70;22.47;;;0.40;99.90;;;;;;5026685;28;20249;-70
2021/12/11 04:14:48;;;;;;;68.33;20.23;;;0.40;99.90;;;;;;5032684;28;20216;-69
2021/12/11 04:17:22;;;;;;;84.63;21.43;;;0.50;99.90;;;;;;5023459;28;20252;-69
2021/12/11 04:19:51;;;;;;;73.33;20.47;;;0.60;99.90;;;;;;5022817;28;20208;-70
2021/12/11 04:22:19;;;;;;;61.70;20.73;;;0.80;99.90;;;;;;5033493;28;20253;-70
2021/12/11 04:24:46;;;;;;;60.70;19.20;;;0.90;99.90;;;;;;5028804;28;20693;-69
2021/12/11 04:27:15;;;;;;;62.60;20.70;;;1.00;99.90;;;;;;5026489;28;20216;-69
2021/12/11 04:29:43;;;;;;;79.77;19.40;;;1.10;99.90;;;;;;5023541;28;20255;-69
2021/12/11 04:32:11;;;;;;;77.83;19.80;;;1.20;99.90;;;;;;5023188;28;20229;-69
2021/12/11 04:34:39;;;;;;;86.13;20.97;;;1.20;99.90;;;;;;5041411;28;20213;-69
2021/12/11 04:37:13;;;;;;;83.83;20.97;;;1.40;99.90;;;;;;5021656;28;20229;-69
2021/12/11 04:39:43;;;;;;;76.37;20.23;;;1.40;99.90;;;;;;5020730;28;20215;-69
2021/12/11 04:42:18;;;;;;;76.77;21.13;;;1.40;99.90;;;;;;5027762;28;20548;-69
2021/12/11 04:44:47;;;;;;;87.60;21.53;;;1.50;99.90;;;;;;5032359;28;20654;-69
2021/12/11 04:47:29;;;;;;;90.83;20.77;;;1.60;99.90;;;;;;5025407;28;20210;-70
2021/12/11 04:50:03;;;;;;;114.77;24.83;;;1.70;99.90;;;;;;5026351;28;20587;-69
2021/12/11 04:52:37;;;;;;;96.33;20.13;;;1.70;99.90;;;;;;5019903;28;20264;-69
2021/12/11 04:55:18;;;;;;;85.63;20.50;;;1.80;99.90;;;;;;5020193;28;20268;-69
2021/12/11 04:57:59;;;;;;;82.23;21.30;;;1.90;99.90;;;;;;5035769;28;20868;-69
2021/12/11 05:00:41;;;;;;;64.83;19.03;;;1.90;99.90;;;;;;5023995;28;20221;-70
2021/12/11 05:06:18;;;;;;;67.67;20.60;;;2.00;99.90;;;;;;5001710;28;20233;-69
2021/12/11 05:11:38;;;;;;;100.67;19.70;;;2.10;99.90;;;;;;5026717;28;20915;-69
2021/12/11 05:14:12;;;;;;;112.33;21.60;;;2.10;99.90;;;;;;5029415;28;20216;-69
2021/12/11 05:16:39;;;;;;;93.73;21.97;;;2.10;99.90;;;;;;5030784;28;20206;-69
2021/12/11 05:19:07;;;;;;;95.13;21.33;;;2.20;99.90;;;;;;5029762;28;20230;-69
2021/12/11 05:21:35;;;;;;;85.27;21.73;;;2.20;99.90;;;;;;5042871;28;20221;-69
2021/12/11 05:24:05;;;;;;;109.03;23.00;;;2.20;99.90;;;;;;5025475;28;20228;-70
2021/12/11 05:26:33;;;;;;;78.83;20.43;;;2.30;99.90;;;;;;5024087;28;20213;-69
2021/12/11 05:29:00;;;;;;;83.60;22.20;;;2.30;99.90;;;;;;5030892;28;20220;-69
2021/12/11 05:31:27;;;;;;;74.03;20.03;;;2.30;99.90;;;;;;5035347;28;20255;-72
2021/12/11 05:33:54;;;;;;;84.33;22.67;;;2.40;99.90;;;;;;5013755;28;20209;-69
2021/12/11 05:36:23;;;;;;;93.80;22.73;;;2.40;99.90;;;;;;5032486;28;20289;-69
2021/12/11 05:38:51;;;;;;;91.93;22.00;;;2.50;99.90;;;;;;5031182;28;20312;-69
2021/12/11 05:41:23;;;;;;;72.70;20.73;;;2.40;99.90;;;;;;5029211;28;20225;-69
2021/12/11 05:43:55;;;;;;;94.20;22.00;;;2.40;99.90;;;;;;5027523;28;20271;-69
2021/12/11 05:46:23;;;;;;;116.17;23.30;;;2.50;99.90;;;;;;5025274;28;20694;-69
2021/12/11 05:48:53;;;;;;;79.53;23.30;;;2.50;99.90;;;;;;5027871;28;20206;-69
2021/12/11 05:51:22;;;;;;;98.70;24.33;;;2.50;99.90;;;;;;5031095;28;20278;-69
2021/12/11 05:53:53;;;;;;;80.77;23.70;;;2.50;99.90;;;;;;5028996;28;20206;-69
2021/12/11 05:56:21;;;;;;;75.10;22.30;;;2.50;99.90;;;;;;5037419;28;20290;-69
2021/12/11 05:58:56;;;;;;;107.97;23.87;;;2.50;99.90;;;;;;5030803;28;20683;-69
2021/12/11 06:01:31;;;;;;;116.60;23.63;;;2.60;99.90;;;;;;5024550;28;20241;-69
2021/12/11 06:04:01;;;;;;;82.87;22.67;;;2.60;99.90;;;;;;5025819;28;20213;-69
2021/12/11 06:06:28;;;;;;;111.97;23.47;;;2.60;99.90;;;;;;5027440;28;20201;-68
2021/12/11 06:08:56;;;;;;;115.30;25.83;;;2.60;99.90;;;;;;5029229;28;20246;-69
2021/12/11 06:11:23;;;;;;;139.17;24.57;;;2.60;99.90;;;;;;5023306;28;20237;-68
2021/12/11 06:13:50;;;;;;;92.23;24.70;;;2.60;99.90;;;;;;5022657;28;20218;-69
2021/12/11 06:16:18;;;;;;;111.47;27.33;;;2.70;99.90;;;;;;5024740;28;20399;-68
2021/12/11 06:18:46;;;;;;;96.70;25.13;;;2.70;99.90;;;;;;5029727;28;20226;-69
2021/12/11 06:21:14;;;;;;;104.67;24.83;;;2.60;99.90;;;;;;5025496;28;20221;-69
2021/12/11 06:23:41;;;;;;;94.23;25.50;;;2.60;99.90;;;;;;5024726;28;20230;-68
2021/12/11 06:26:10;;;;;;;81.40;23.73;;;2.60;99.90;;;;;;5025798;28;20216;-69
2021/12/11 06:28:37;;;;;;;80.23;23.83;;;2.70;99.90;;;;;;5021081;28;20210;-68
2021/12/11 06:31:05;;;;;;;72.53;22.60;;;2.70;99.90;;;;;;5029168;28;20214;-68
2021/12/11 06:33:35;;;;;;;86.27;24.90;;;2.70;99.90;;;;;;5029396;28;20214;-69
2021/12/11 06:36:06;;;;;;;88.93;25.00;;;2.70;99.90;;;;;;5042382;28;20827;-69
2021/12/11 06:38:36;;;;;;;82.50;24.40;;;2.80;99.90;;;;;;5024014;28;20726;-69
2021/12/11 06:41:05;;;;;;;85.00;25.27;;;2.80;99.90;;;;;;5028721;28;20221;-68
2021/12/11 06:43:34;;;;;;;94.53;26.40;;;2.80;99.90;;;;;;5011890;28;20652;-69
2021/12/11 06:46:01;;;;;;;100.87;25.47;;;2.80;99.90;;;;;;5030232;28;20213;-69
2021/12/11 06:48:29;;;;;;;99.47;28.07;;;2.80;99.90;;;;;;5021007;28;20222;-69
2021/12/11 06:50:57;;;;;;;91.00;27.43;;;2.90;99.90;;;;;;5023082;28;20217;-69
2021/12/11 06:53:28;;;;;;;95.20;25.63;;;2.90;99.90;;;;;;5032949;28;20230;-69
2021/12/11 06:55:56;;;;;;;160.33;27.27;;;3.00;99.90;;;;;;5027046;28;20671;-69
2021/12/11 06:58:23;;;;;;;184.93;27.10;;;3.00;99.90;;;;;;5024526;28;20599;-69
2021/12/11 07:00:51;;;;;;;189.80;29.30;;;3.00;99.90;;;;;;5033788;28;20681;-69
2021/12/11 07:03:18;;;;;;;102.17;26.90;;;3.00;99.90;;;;;;5016971;28;20222;-69
2021/12/11 07:05:45;;;;;;;197.60;29.10;;;3.00;99.90;;;;;;5030433;28;20344;-69
2021/12/11 07:08:13;;;;;;;118.90;28.00;;;3.00;99.90;;;;;;5028508;28;20209;-69
2021/12/11 07:10:41;;;;;;;151.17;27.97;;;3.00;99.90;;;;;;5027971;28;20237;-69
2021/12/11 07:13:10;;;;;;;104.87;29.50;;;3.10;99.90;;;;;;5034089;28;20237;-68
2021/12/11 07:15:37;;;;;;;94.23;28.43;;;3.10;99.90;;;;;;5025075;28;20210;-68
2021/12/11 07:18:06;;;;;;;111.80;30.87;;;3.20;99.90;;;;;;5024509;28;20225;-68
2021/12/11 07:20:33;;;;;;;100.43;28.50;;;3.20;99.90;;;;;;5024289;28;20240;-68
2021/12/11 07:23:00;;;;;;;97.83;28.00;;;3.30;99.90;;;;;;5024300;28;20230;-70
2021/12/11 07:25:35;;;;;;;105.80;28.07;;;3.30;99.90;;;;;;5029051;28;20213;-70
2021/12/11 07:28:03;;;;;;;105.43;29.00;;;3.40;99.90;;;;;;5025834;28;20209;-70
2021/12/11 07:30:32;;;;;;;98.00;29.73;;;3.40;99.90;;;;;;5032104;28;20264;-70
2021/12/11 07:33:02;;;;;;;86.80;25.57;;;3.50;99.90;;;;;;5039487;28;20233;-68
2021/12/11 07:35:30;;;;;;;97.80;28.10;;;3.50;99.90;;;;;;5024580;28;20233;-68
2021/12/11 07:37:57;;;;;;;112.00;28.70;;;3.50;99.90;;;;;;5025857;28;20319;-68
2021/12/11 07:40:27;;;;;;;92.47;28.83;;;3.40;99.90;;;;;;5021225;28;20217;-68
2021/12/11 07:42:55;;;;;;;107.50;30.80;;;3.30;99.90;;;;;;5021218;28;20229;-70
2021/12/11 07:45:24;;;;;;;86.60;27.73;;;3.30;99.90;;;;;;5023719;28;20224;-70
2021/12/11 07:47:51;;;;;;;103.73;28.57;;;3.30;99.90;;;;;;5024272;28;20210;-70
2021/12/11 07:50:19;;;;;;;99.93;29.93;;;3.40;99.90;;;;;;5025516;28;20216;-70
2021/12/11 07:52:48;;;;;;;81.50;25.47;;;3.40;99.90;;;;;;5024112;28;20237;-69
2021/12/11 07:55:16;;;;;;;96.93;29.00;;;3.50;99.90;;;;;;5011330;28;20209;-68
2021/12/11 07:57:43;;;;;;;108.10;31.80;;;3.50;99.90;;;;;;5021001;28;20209;-69
2021/12/11 08:00:13;;;;;;;98.13;28.73;;;3.50;99.90;;;;;;5017265;28;20245;-69
2021/12/11 08:02:41;;;;;;;90.63;26.60;;;3.50;99.90;;;;;;5018251;28;20237;-70
2021/12/11 08:05:09;;;;;;;98.63;28.43;;;3.50;99.90;;;;;;5019590;28;20229;-70
2021/12/11 08:07:36;;;;;;;111.00;30.60;;;3.60;99.90;;;;;;5020028;28;20807;-70
2021/12/11 08:10:06;;;;;;;99.27;27.87;;;3.60;99.90;;;;;;5006649;28;20218;-70
2021/12/11 08:12:33;;;;;;;104.47;30.37;;;3.60;99.90;;;;;;5021592;28;20237;-70
2021/12/11 08:15:00;;;;;;;98.80;31.10;;;3.60;99.90;;;;;;5019777;28;20205;-70
2021/12/11 08:17:27;;;;;;;101.23;30.07;;;3.70;99.90;;;;;;5018467;28;20225;-68
2021/12/11 08:19:54;;;;;;;102.60;29.40;;;3.10;99.90;;;;;;5023339;28;20260;-68
2021/12/11 08:22:22;;;;;;;101.80;32.37;;;3.80;99.90;;;;;;5016304;28;20743;-69
2021/12/11 08:24:50;;;;;;;85.17;27.80;;;3.80;99.90;;;;;;5022285;28;20217;-69
2021/12/11 08:27:21;;;;;;;115.47;31.03;;;3.80;99.90;;;;;;5025356;28;20214;-69
2021/12/11 08:29:50;;;;;;;98.97;28.93;;;3.90;99.90;;;;;;5021761;28;20210;-69
2021/12/11 08:32:18;;;;;;;93.17;28.60;;;3.90;99.90;;;;;;5019608;28;20242;-69
2021/12/11 08:34:45;;;;;;;111.03;30.80;;;4.00;99.90;;;;;;5017441;28;20631;-69
2021/12/11 08:37:14;;;;;;;115.90;33.03;;;4.00;99.90;;;;;;5012045;28;20902;-69
2021/12/11 08:39:42;;;;;;;89.97;28.20;;;4.10;99.90;;;;;;5016605;28;20237;-70
2021/12/11 08:42:11;;;;;;;95.77;28.23;;;4.10;99.90;;;;;;5024538;28;20245;-69
2021/12/11 08:44:48;;;;;;;71.80;22.93;;;4.10;99.90;;;;;;5020977;28;20221;-69
2021/12/11 08:47:16;;;;;;;70.77;19.33;;;4.10;99.90;;;;;;5029926;28;20205;-69
2021/12/11 08:49:43;;;;;;;106.57;32.13;;;4.00;99.90;;;;;;5030133;28;20205;-69
2021/12/11 08:52:15;;;;;;;97.37;31.43;;;4.00;99.90;;;;;;5025433;28;20619;-69
2021/12/11 08:54:42;;;;;;;106.33;31.40;;;4.20;99.90;;;;;;5025605;28;20217;-70
2021/12/11 08:57:12;;;;;;;85.00;28.57;;;4.00;99.90;;;;;;5026945;28;20214;-69
2021/12/11 08:59:46;;;;;;;112.27;32.10;;;4.00;99.90;;;;;;5022164;28;20250;-69
2021/12/11 09:02:17;;;;;;;79.77;27.43;;;3.90;99.90;;;;;;5024086;28;20229;-69
2021/12/11 09:04:48;;;;;;;107.33;30.37;;;4.00;99.90;;;;;;5022702;28;20210;-69
2021/12/11 09:07:19;;;;;;;105.20;31.43;;;4.00;99.90;;;;;;5011246;28;20348;-68
2021/12/11 09:09:52;;;;;;;117.67;32.97;;;4.00;99.90;;;;;;5015376;28;20205;-69
2021/12/11 09:12:25;;;;;;;110.57;31.53;;;4.00;99.90;;;;;;5011202;28;20730;-69
2021/12/11 09:14:59;;;;;;;96.77;29.83;;;4.10;99.90;;;;;;5011368;28;20333;-69
2021/12/11 09:17:33;;;;;;;126.17;32.97;;;4.20;99.90;;;;;;5016866;28;20687;-70
2021/12/11 09:20:07;;;;;;;107.70;30.00;;;4.20;99.90;;;;;;5024209;28;20229;-71
2021/12/11 09:22:38;;;;;;;107.10;30.77;;;4.20;99.90;;;;;;5020323;28;20276;-70
2021/12/11 09:25:13;;;;;;;119.47;31.87;;;4.20;99.90;;;;;;5022415;28;20210;-70
2021/12/11 09:27:45;;;;;;;84.47;25.03;;;4.20;99.90;;;;;;5027762;28;20206;-71
2021/12/11 09:30:20;;;;;;;106.40;30.33;;;4.20;99.90;;;;;;5024196;28;20213;-70
2021/12/11 09:32:52;;;;;;;131.23;35.20;;;4.20;99.90;;;;;;5021778;28;20264;-71
2021/12/11 09:35:22;;;;;;;122.37;32.07;;;4.20;99.90;;;;;;5011527;28;20607;-70
2021/12/11 09:37:56;;;;;;;118.03;32.47;;;4.20;99.90;;;;;;5015526;28;20882;-71
2021/12/11 09:40:50;;;;;;;121.93;32.63;;;4.20;99.90;;;;;;5025111;28;20245;-70
2021/12/11 09:43:31;;;;;;;117.13;31.80;;;4.20;99.90;;;;;;5010062;28;20233;-71
2021/12/11 09:45:58;;;;;;;107.00;28.37;;;4.00;99.90;;;;;;5009063;28;20751;-71
2021/12/11 09:48:25;;;;;;;117.30;32.47;;;4.30;99.90;;;;;;5023580;28;20213;-70
2021/12/11 09:51:01;;;;;;;134.97;34.17;;;4.30;99.90;;;;;;5013759;28;20213;-70
2021/12/11 09:53:32;;;;;;;124.67;31.60;;;4.30;99.90;;;;;;5013163;28;20217;-70
2021/12/11 09:56:00;;;;;;;129.70;33.07;;;4.30;99.90;;;;;;5019817;28;20268;-70
2021/12/11 09:58:32;;;;;;;102.20;29.30;;;4.40;99.90;;;;;;5011943;28;20214;-70
2021/12/11 10:01:04;;;;;;;110.67;29.13;;;5.40;99.90;;;;;;5026497;28;20213;-70
2021/12/11 10:03:38;;;;;;;101.03;26.80;;;4.50;99.90;;;;;;5025746;28;20237;-70
2021/12/11 10:06:13;;;;;;;105.97;28.93;;;4.50;99.90;;;;;;5021652;28;20219;-70
2021/12/11 10:08:44;;;;;;;108.27;29.97;;;4.50;99.90;;;;;;5025497;28;20299;-70
2021/12/11 10:11:14;;;;;;;122.67;30.87;;;4.40;99.90;;;;;;5025721;28;20201;-69
2021/12/11 10:13:47;;;;;;;106.63;28.13;;;4.40;99.90;;;;;;5024898;28;20221;-69
2021/12/11 10:16:18;;;;;;;121.77;31.07;;;4.40;99.90;;;;;;5019679;28;20216;-69
2021/12/11 10:18:45;;;;;;;100.17;27.47;;;4.40;99.90;;;;;;5021679;28;20313;-69
2021/12/11 10:21:15;;;;;;;104.30;28.93;;;4.40;99.90;;;;;;5022022;28;20641;-69
2021/12/11 10:23:47;;;;;;;123.53;29.63;;;4.40;99.90;;;;;;5022550;28;20346;-69
2021/12/11 10:26:16;;;;;;;128.43;33.73;;;4.40;99.90;;;;;;5020316;28;20225;-68
2021/12/11 10:28:48;;;;;;;83.07;23.60;;;4.40;99.90;;;;;;5019663;28;20219;-69
2021/12/11 10:31:18;;;;;;;127.70;31.37;;;4.40;99.90;;;;;;5022481;28;20206;-70
2021/12/11 10:33:45;;;;;;;109.70;29.50;;;4.40;99.90;;;;;;5021064;28;20228;-70
2021/12/11 10:36:16;;;;;;;130.97;32.43;;;4.30;99.90;;;;;;5025742;28;20217;-70
2021/12/11 10:38:44;;;;;;;138.87;32.07;;;4.40;99.90;;;;;;5020342;28;20210;-70
2021/12/11 10:41:13;;;;;;;124.03;30.53;;;4.40;99.90;;;;;;5019920;28;20213;-70
2021/12/11 10:43:46;;;;;;;122.30;31.13;;;4.40;99.90;;;;;;5020550;28;20253;-69
2021/12/11 10:46:16;;;;;;;99.23;27.20;;;4.50;99.90;;;;;;5018743;28;20235;-70
2021/12/11 10:48:44;;;;;;;131.33;31.27;;;4.50;99.90;;;;;;5022210;28;20670;-70
2021/12/11 10:51:15;;;;;;;100.50;26.47;;;4.50;99.90;;;;;;5020886;28;20655;-70
2021/12/11 10:53:46;;;;;;;115.33;29.27;;;4.50;99.90;;;;;;5020065;28;20293;-70
2021/12/11 10:56:14;;;;;;;117.73;29.23;;;5.70;99.90;;;;;;5023326;28;20221;-70
2021/12/11 10:58:44;;;;;;;137.33;31.20;;;4.40;99.90;;;;;;5016891;28;20232;-70
2021/12/11 11:01:17;;;;;;;102.63;28.60;;;4.40;99.90;;;;;;5024238;28;20214;-70
2021/12/11 11:03:49;;;;;;;104.93;28.37;;;4.40;99.90;;;;;;5023015;28;20289;-70
2021/12/11 11:06:17;;;;;;;110.93;28.40;;;4.40;99.90;;;;;;5018548;28;20648;-70
2021/12/11 11:08:46;;;;;;;105.00;28.70;;;4.40;99.90;;;;;;5006386;28;20223;-70
2021/12/11 11:11:16;;;;;;;117.83;32.80;;;4.40;99.90;;;;;;5035235;28;20256;-70
2021/12/11 11:13:44;;;;;;;131.50;31.13;;;4.50;99.90;;;;;;5003641;28;20543;-69
2021/12/11 11:16:12;;;;;;;98.70;25.43;;;4.50;99.90;;;;;;5023643;28;20770;-70
2021/12/11 11:18:40;;;;;;;98.57;29.37;;;4.50;99.90;;;;;;5023088;28;20233;-70
2021/12/11 11:21:11;;;;;;;116.83;31.27;;;4.50;99.90;;;;;;5023472;28;20225;-70
2021/12/11 11:23:39;;;;;;;114.30;31.37;;;4.50;99.90;;;;;;5022167;28;20217;-70
2021/12/11 11:26:09;;;;;;;102.70;27.67;;;4.60;99.90;;;;;;5023575;28;20229;-70
2021/12/11 11:28:37;;;;;;;120.17;30.37;;;4.60;99.90;;;;;;5029129;28;20926;-70
2021/12/11 11:31:15;;;;;;;114.30;31.47;;;4.60;99.90;;;;;;5024398;28;20214;-70
2021/12/11 11:33:45;;;;;;;116.60;29.77;;;4.60;99.90;;;;;;5022848;28;20214;-70
2021/12/11 11:36:17;;;;;;;121.60;29.73;;;4.70;99.90;;;;;;5022949;28;20240;-70
2021/12/11 11:38:48;;;;;;;122.63;30.30;;;4.70;99.90;;;;;;5024463;28;20298;-70
2021/12/11 11:41:18;;;;;;;129.50;28.93;;;4.90;99.90;;;;;;5026613;28;20236;-70
2021/12/11 11:43:46;;;;;;;131.73;29.83;;;4.90;99.90;;;;;;5024483;28;20226;-70
2021/12/11 11:46:14;;;;;;;111.03;29.27;;;5.00;99.90;;;;;;5025562;28;20210;-70
2021/12/11 11:48:47;;;;;;;116.60;29.97;;;5.00;99.90;;;;;;5025332;28;20210;-71
2021/12/11 11:51:18;;;;;;;125.57;32.03;;;5.10;99.90;;;;;;5023531;28;20245;-70
2021/12/11 11:53:45;;;;;;;116.20;30.60;;;5.10;99.90;;;;;;5013421;28;20211;-68
2021/12/11 11:56:20;;;;;;;119.20;29.53;;;5.10;99.90;;;;;;5023103;28;20226;-69
2021/12/11 11:58:47;;;;;;;117.20;30.67;;;5.20;99.90;;;;;;5015851;28;20720;-68
2021/12/11 12:01:18;;;;;;;126.07;30.27;;;5.30;99.90;;;;;;5023276;28;20555;-68
2021/12/11 12:03:47;;;;;;;107.83;30.13;;;5.30;99.90;;;;;;5003128;28;20222;-68
2021/12/11 12:06:22;;;;;;;117.67;30.33;;;5.30;99.90;;;;;;5020656;28;20663;-67
2021/12/11 12:08:51;;;;;;;116.77;30.67;;;5.40;99.90;;;;;;5020050;28;20316;-67
2021/12/11 12:11:18;;;;;;;112.43;29.60;;;5.60;99.90;;;;;;5034596;28;20216;-67
2021/12/11 12:13:46;;;;;;;109.60;30.70;;;5.60;99.90;;;;;;5012426;28;20229;-67
2021/12/11 12:16:14;;;;;;;121.80;32.63;;;5.70;99.90;;;;;;5013121;28;20225;-67
2021/12/11 12:18:42;;;;;;;123.80;31.57;;;5.70;99.90;;;;;;5020476;28;20671;-67
2021/12/11 12:21:14;;;;;;;117.93;32.27;;;5.80;99.90;;;;;;5022881;28;20241;-68
2021/12/11 12:23:41;;;;;;;118.83;33.47;;;5.80;99.90;;;;;;5023036;28;20210;-67
2021/12/11 12:26:16;;;;;;;113.80;30.83;;;5.90;99.90;;;;;;5023156;28;20663;-68
2021/12/11 12:28:43;;;;;;;114.17;30.40;;;5.90;99.90;;;;;;5022106;28;20702;-68
2021/12/11 12:31:14;;;;;;;115.10;32.33;;;6.00;99.90;;;;;;5022998;28;20212;-67
2021/12/11 12:33:42;;;;;;;120.90;30.93;;;6.00;99.90;;;;;;5022838;28;20210;-68
2021/12/11 12:36:10;;;;;;;69.20;19.50;;;6.00;99.90;;;;;;5030129;28;20250;-67
2021/12/11 12:38:39;;;;;;;54.47;17.53;;;6.10;99.90;;;;;;5024217;28;20718;-67
2021/12/11 12:41:10;;;;;;;122.83;27.57;;;5.80;99.90;;;;;;5021359;28;20778;-68
2021/12/11 12:44:05;;;;;;;98.80;22.97;;;6.00;99.90;;;;;;5022602;28;20210;-67
2021/12/11 12:46:37;;;;;;;100.37;23.80;;;6.00;99.90;;;;;;5011940;28;20225;-68
2021/12/11 12:49:04;;;;;;;101.03;24.53;;;6.00;99.90;;;;;;5011438;28;20217;-67
2021/12/11 12:51:35;;;;;;;90.13;20.40;;;6.00;99.90;;;;;;5021140;28;20233;-67